sensor_id;sensor_type;location;lat;lon;timestamp;pressure;altitude;pressure_sealevel;temperature;humidity
76519;BME280;67029;51.054;13.798;2023-09-07T00:00:39;101053.08;;;22.66;48.85
76519;BME280;67029;51.054;13.798;2023-09-07T00:03:09;101048.06;;;22.56;49.03
76519;BME280;67029;51.054;13.798;2023-09-07T00:05:39;101047.61;;;22.55;48.96
76519;BME280;67029;51.054;13.798;2023-09-07T00:08:09;101049.34;;;22.52;49.11
76519;BME280;67029;51.054;13.798;2023-09-07T00:10:39;101048.86;;;22.49;49.04
76519;BME280;67029;51.054;13.798;2023-09-07T00:13:09;101050.94;;;22.47;49.20
76519;BME280;67029;51.054;13.798;2023-09-07T00:15:39;101054.97;;;22.41;49.18
76519;BME280;67029;51.054;13.798;2023-09-07T00:18:09;101056.17;;;22.39;49.20
76519;BME280;67029;51.054;13.798;2023-09-07T00:20:39;101057.20;;;22.36;49.30
76519;BME280;67029;51.054;13.798;2023-09-07T00:23:09;101058.73;;;22.33;49.34
76519;BME280;67029;51.054;13.798;2023-09-07T00:25:39;101065.27;;;22.30;49.55
76519;BME280;67029;51.054;13.798;2023-09-07T00:28:09;101063.89;;;22.24;49.58
76519;BME280;67029;51.054;13.798;2023-09-07T00:30:39;101066.38;;;22.21;49.68
76519;BME280;67029;51.054;13.798;2023-09-07T00:33:09;101066.20;;;22.14;49.78
76519;BME280;67029;51.054;13.798;2023-09-07T00:35:39;101065.20;;;22.10;49.87
76519;BME280;67029;51.054;13.798;2023-09-07T00:38:09;101066.16;;;22.06;49.91
76519;BME280;67029;51.054;13.798;2023-09-07T00:40:42;101066.67;;;22.01;49.97
76519;BME280;67029;51.054;13.798;2023-09-07T00:43:10;101069.28;;;21.97;50.11
76519;BME280;67029;51.054;13.798;2023-09-07T00:45:40;101070.30;;;21.92;50.17
76519;BME280;67029;51.054;13.798;2023-09-07T00:48:12;101069.33;;;21.87;50.21
76519;BME280;67029;51.054;13.798;2023-09-07T00:50:41;101067.12;;;21.83;50.45
76519;BME280;67029;51.054;13.798;2023-09-07T00:53:11;101071.42;;;21.80;50.45
76519;BME280;67029;51.054;13.798;2023-09-07T00:55:41;101067.69;;;21.76;50.49
76519;BME280;67029;51.054;13.798;2023-09-07T00:58:12;101065.97;;;21.75;50.52
76519;BME280;67029;51.054;13.798;2023-09-07T01:00:42;101056.61;;;21.73;50.55
76519;BME280;67029;51.054;13.798;2023-09-07T01:03:12;101058.80;;;21.69;50.58
76519;BME280;67029;51.054;13.798;2023-09-07T01:05:56;101054.77;;;21.66;50.71
76519;BME280;67029;51.054;13.798;2023-09-07T01:08:24;101052.80;;;21.64;50.76
76519;BME280;67029;51.054;13.798;2023-09-07T01:10:43;101050.69;;;21.60;50.92
76519;BME280;67029;51.054;13.798;2023-09-07T01:13:13;101052.98;;;21.55;51.14
76519;BME280;67029;51.054;13.798;2023-09-07T01:15:43;101053.07;;;21.50;51.22
76519;BME280;67029;51.054;13.798;2023-09-07T01:18:13;101053.95;;;21.46;51.28
76519;BME280;67029;51.054;13.798;2023-09-07T01:20:44;101050.64;;;21.43;51.40
76519;BME280;67029;51.054;13.798;2023-09-07T01:23:13;101050.88;;;21.39;51.53
76519;BME280;67029;51.054;13.798;2023-09-07T01:25:44;101051.48;;;21.35;51.50
76519;BME280;67029;51.054;13.798;2023-09-07T01:28:14;101051.27;;;21.33;51.53
76519;BME280;67029;51.054;13.798;2023-09-07T01:30:45;101047.98;;;21.29;51.67
76519;BME280;67029;51.054;13.798;2023-09-07T01:33:14;101045.81;;;21.28;51.69
76519;BME280;67029;51.054;13.798;2023-09-07T01:35:44;101048.41;;;21.26;51.67
76519;BME280;67029;51.054;13.798;2023-09-07T01:38:14;101051.06;;;21.24;51.74
76519;BME280;67029;51.054;13.798;2023-09-07T01:40:45;101054.66;;;21.21;51.81
76519;BME280;67029;51.054;13.798;2023-09-07T01:43:14;101053.02;;;21.17;52.01
76519;BME280;67029;51.054;13.798;2023-09-07T01:45:45;101049.83;;;21.12;52.05
76519;BME280;67029;51.054;13.798;2023-09-07T01:48:15;101055.93;;;21.08;52.35
76519;BME280;67029;51.054;13.798;2023-09-07T01:50:45;101051.37;;;20.78;52.76
76519;BME280;67029;51.054;13.798;2023-09-07T01:53:15;101060.09;;;20.78;52.61
76519;BME280;67029;51.054;13.798;2023-09-07T01:55:45;101051.70;;;20.81;52.58
76519;BME280;67029;51.054;13.798;2023-09-07T01:58:15;101053.60;;;20.84;52.43
76519;BME280;67029;51.054;13.798;2023-09-07T02:00:45;101050.85;;;20.83;52.47
76519;BME280;67029;51.054;13.798;2023-09-07T02:03:15;101048.45;;;20.83;52.55
76519;BME280;67029;51.054;13.798;2023-09-07T02:05:45;101048.16;;;20.80;52.67
76519;BME280;67029;51.054;13.798;2023-09-07T02:08:15;101047.34;;;20.77;52.64
76519;BME280;67029;51.054;13.798;2023-09-07T02:10:45;101048.00;;;20.78;52.65
76519;BME280;67029;51.054;13.798;2023-09-07T02:13:15;101050.23;;;20.76;52.72
76519;BME280;67029;51.054;13.798;2023-09-07T02:15:45;101050.53;;;20.75;52.71
76519;BME280;67029;51.054;13.798;2023-09-07T02:18:15;101046.75;;;20.75;52.78
76519;BME280;67029;51.054;13.798;2023-09-07T02:20:45;101046.78;;;20.74;52.78
76519;BME280;67029;51.054;13.798;2023-09-07T02:23:15;101044.62;;;20.75;52.83
76519;BME280;67029;51.054;13.798;2023-09-07T02:25:45;101042.81;;;20.71;52.81
76519;BME280;67029;51.054;13.798;2023-09-07T02:28:15;101049.17;;;20.71;52.75
76519;BME280;67029;51.054;13.798;2023-09-07T02:30:45;101047.20;;;20.71;52.82
76519;BME280;67029;51.054;13.798;2023-09-07T02:33:15;101046.99;;;20.70;52.83
76519;BME280;67029;51.054;13.798;2023-09-07T02:35:47;101041.34;;;20.67;52.84
76519;BME280;67029;51.054;13.798;2023-09-07T02:38:16;101043.87;;;20.64;52.88
76519;BME280;67029;51.054;13.798;2023-09-07T02:40:46;101050.34;;;20.62;52.90
76519;BME280;67029;51.054;13.798;2023-09-07T02:43:16;101048.47;;;20.59;52.98
76519;BME280;67029;51.054;13.798;2023-09-07T02:45:48;101048.97;;;20.57;53.03
76519;BME280;67029;51.054;13.798;2023-09-07T02:48:17;101047.78;;;20.53;53.03
76519;BME280;67029;51.054;13.798;2023-09-07T02:50:48;101051.09;;;20.50;53.12
76519;BME280;67029;51.054;13.798;2023-09-07T02:53:17;101047.37;;;20.49;53.25
76519;BME280;67029;51.054;13.798;2023-09-07T02:55:47;101048.59;;;20.42;53.27
76519;BME280;67029;51.054;13.798;2023-09-07T02:58:17;101048.97;;;20.41;53.38
76519;BME280;67029;51.054;13.798;2023-09-07T03:00:47;101048.48;;;20.41;53.31
76519;BME280;67029;51.054;13.798;2023-09-07T03:03:17;101052.45;;;20.40;53.36
76519;BME280;67029;51.054;13.798;2023-09-07T03:05:47;101048.52;;;20.37;53.36
76519;BME280;67029;51.054;13.798;2023-09-07T03:08:17;101050.74;;;20.36;53.37
76519;BME280;67029;51.054;13.798;2023-09-07T03:10:47;101051.69;;;20.34;53.41
76519;BME280;67029;51.054;13.798;2023-09-07T03:13:17;101051.84;;;20.32;53.38
76519;BME280;67029;51.054;13.798;2023-09-07T03:15:47;101054.73;;;20.29;53.46
76519;BME280;67029;51.054;13.798;2023-09-07T03:18:17;101049.12;;;20.27;53.53
76519;BME280;67029;51.054;13.798;2023-09-07T03:20:47;101045.20;;;20.25;53.53
76519;BME280;67029;51.054;13.798;2023-09-07T03:23:17;101042.81;;;20.23;53.53
76519;BME280;67029;51.054;13.798;2023-09-07T03:25:48;101042.66;;;20.20;53.62
76519;BME280;67029;51.054;13.798;2023-09-07T03:28:17;101040.73;;;20.17;53.70
76519;BME280;67029;51.054;13.798;2023-09-07T03:30:47;101038.72;;;20.14;53.70
76519;BME280;67029;51.054;13.798;2023-09-07T03:33:17;101040.73;;;20.13;53.70
76519;BME280;67029;51.054;13.798;2023-09-07T03:35:47;101041.02;;;20.10;53.77
76519;BME280;67029;51.054;13.798;2023-09-07T03:38:18;101042.92;;;20.08;53.75
76519;BME280;67029;51.054;13.798;2023-09-07T03:40:48;101046.06;;;20.06;53.78
76519;BME280;67029;51.054;13.798;2023-09-07T03:43:17;101046.59;;;20.04;53.86
76519;BME280;67029;51.054;13.798;2023-09-07T03:45:48;101052.24;;;20.02;53.91
76519;BME280;67029;51.054;13.798;2023-09-07T03:48:18;101052.67;;;20.00;53.91
76519;BME280;67029;51.054;13.798;2023-09-07T03:50:48;101055.16;;;19.98;53.95
76519;BME280;67029;51.054;13.798;2023-09-07T03:53:18;101057.73;;;19.94;54.07
76519;BME280;67029;51.054;13.798;2023-09-07T03:55:48;101059.30;;;19.91;54.05
76519;BME280;67029;51.054;13.798;2023-09-07T03:58:18;101058.31;;;19.88;54.16
76519;BME280;67029;51.054;13.798;2023-09-07T04:00:48;101062.95;;;19.86;54.21
76519;BME280;67029;51.054;13.798;2023-09-07T04:03:18;101061.94;;;19.83;54.26
76519;BME280;67029;51.054;13.798;2023-09-07T04:05:48;101060.30;;;19.81;54.28
76519;BME280;67029;51.054;13.798;2023-09-07T04:08:18;101057.77;;;19.78;54.41
76519;BME280;67029;51.054;13.798;2023-09-07T04:10:48;101058.12;;;19.76;54.46
76519;BME280;67029;51.054;13.798;2023-09-07T04:13:20;101055.97;;;19.73;54.60
76519;BME280;67029;51.054;13.798;2023-09-07T04:15:49;101062.23;;;19.71;54.69
76519;BME280;67029;51.054;13.798;2023-09-07T04:18:19;101065.15;;;19.68;54.65
76519;BME280;67029;51.054;13.798;2023-09-07T04:20:49;101063.07;;;19.67;54.79
76519;BME280;67029;51.054;13.798;2023-09-07T04:23:19;101061.34;;;19.65;54.79
76519;BME280;67029;51.054;13.798;2023-09-07T04:25:49;101060.73;;;19.63;54.86
76519;BME280;67029;51.054;13.798;2023-09-07T04:28:19;101063.22;;;19.61;54.80
76519;BME280;67029;51.054;13.798;2023-09-07T04:30:49;101059.67;;;19.60;54.81
76519;BME280;67029;51.054;13.798;2023-09-07T04:33:19;101063.73;;;19.58;54.86
76519;BME280;67029;51.054;13.798;2023-09-07T04:35:49;101065.88;;;19.57;54.88
76519;BME280;67029;51.054;13.798;2023-09-07T04:38:19;101066.27;;;19.55;54.96
76519;BME280;67029;51.054;13.798;2023-09-07T04:40:49;101062.53;;;19.54;55.03
76519;BME280;67029;51.054;13.798;2023-09-07T04:43:19;101063.44;;;19.53;55.03
76519;BME280;67029;51.054;13.798;2023-09-07T04:45:49;101060.38;;;19.52;55.05
76519;BME280;67029;51.054;13.798;2023-09-07T04:48:19;101064.06;;;19.51;55.15
76519;BME280;67029;51.054;13.798;2023-09-07T04:51:04;101067.30;;;19.53;55.16
76519;BME280;67029;51.054;13.798;2023-09-07T04:53:19;101067.30;;;19.53;55.20
76519;BME280;67029;51.054;13.798;2023-09-07T04:55:49;101068.44;;;19.53;55.21
76519;BME280;67029;51.054;13.798;2023-09-07T04:58:19;101068.61;;;19.52;55.30
76519;BME280;67029;51.054;13.798;2023-09-07T05:00:49;101066.22;;;19.54;55.30
76519;BME280;67029;51.054;13.798;2023-09-07T05:03:19;101069.50;;;19.56;55.29
76519;BME280;67029;51.054;13.798;2023-09-07T05:05:53;101068.12;;;19.56;55.33
76519;BME280;67029;51.054;13.798;2023-09-07T05:08:19;101071.47;;;19.60;55.42
76519;BME280;67029;51.054;13.798;2023-09-07T05:10:54;101073.99;;;19.62;55.34
76519;BME280;67029;51.054;13.798;2023-09-07T05:13:20;101075.53;;;19.62;55.39
76519;BME280;67029;51.054;13.798;2023-09-07T05:15:51;101078.30;;;19.61;55.42
76519;BME280;67029;51.054;13.798;2023-09-07T05:18:21;101080.51;;;19.62;55.47
76519;BME280;67029;51.054;13.798;2023-09-07T05:20:51;101078.48;;;19.61;55.49
76519;BME280;67029;51.054;13.798;2023-09-07T05:23:22;101079.88;;;19.63;55.50
76519;BME280;67029;51.054;13.798;2023-09-07T05:25:52;101082.61;;;19.63;55.49
76519;BME280;67029;51.054;13.798;2023-09-07T05:28:22;101088.29;;;19.64;55.51
76519;BME280;67029;51.054;13.798;2023-09-07T05:30:51;101087.78;;;19.62;55.57
76519;BME280;67029;51.054;13.798;2023-09-07T05:33:21;101087.33;;;19.65;55.54
76519;BME280;67029;51.054;13.798;2023-09-07T05:35:51;101093.52;;;19.69;55.51
76519;BME280;67029;51.054;13.798;2023-09-07T05:38:21;101095.59;;;19.71;55.46
76519;BME280;67029;51.054;13.798;2023-09-07T05:40:51;101096.12;;;19.64;55.61
76519;BME280;67029;51.054;13.798;2023-09-07T05:43:21;101095.26;;;19.68;55.53
76519;BME280;67029;51.054;13.798;2023-09-07T05:45:51;101099.54;;;19.71;55.47
76519;BME280;67029;51.054;13.798;2023-09-07T05:48:22;101099.58;;;19.75;55.54
76519;BME280;67029;51.054;13.798;2023-09-07T05:50:52;101099.57;;;19.83;55.40
76519;BME280;67029;51.054;13.798;2023-09-07T05:53:22;101101.78;;;19.91;55.22
76519;BME280;67029;51.054;13.798;2023-09-07T05:55:52;101107.64;;;19.97;55.13
76519;BME280;67029;51.054;13.798;2023-09-07T05:58:22;101106.37;;;20.00;55.12
76519;BME280;67029;51.054;13.798;2023-09-07T06:00:52;101107.04;;;20.09;54.95
76519;BME280;67029;51.054;13.798;2023-09-07T06:03:22;101106.17;;;20.16;54.81
76519;BME280;67029;51.054;13.798;2023-09-07T06:05:52;101105.64;;;20.24;54.80
76519;BME280;67029;51.054;13.798;2023-09-07T06:08:23;101104.11;;;20.34;54.63
76519;BME280;67029;51.054;13.798;2023-09-07T06:10:53;101108.99;;;20.43;54.48
76519;BME280;67029;51.054;13.798;2023-09-07T06:13:23;101109.64;;;20.42;54.56
76519;BME280;67029;51.054;13.798;2023-09-07T06:15:53;101112.05;;;20.46;54.46
76519;BME280;67029;51.054;13.798;2023-09-07T06:18:23;101109.80;;;20.52;54.39
76519;BME280;67029;51.054;13.798;2023-09-07T06:20:53;101107.33;;;20.58;54.29
76519;BME280;67029;51.054;13.798;2023-09-07T06:23:23;101104.15;;;20.65;54.23
76519;BME280;67029;51.054;13.798;2023-09-07T06:25:53;101108.84;;;20.72;54.14
76519;BME280;67029;51.054;13.798;2023-09-07T06:28:23;101108.31;;;20.76;54.17
76519;BME280;67029;51.054;13.798;2023-09-07T06:30:53;101110.44;;;20.80;54.16
76519;BME280;67029;51.054;13.798;2023-09-07T06:33:23;101110.10;;;20.76;54.36
76519;BME280;67029;51.054;13.798;2023-09-07T06:35:53;101110.84;;;20.84;54.30
76519;BME280;67029;51.054;13.798;2023-09-07T06:38:23;101110.37;;;20.90;54.34
76519;BME280;67029;51.054;13.798;2023-09-07T06:40:53;101110.22;;;21.04;54.11
76519;BME280;67029;51.054;13.798;2023-09-07T06:43:23;101115.23;;;21.15;54.01
76519;BME280;67029;51.054;13.798;2023-09-07T06:45:53;101113.66;;;21.31;53.76
76519;BME280;67029;51.054;13.798;2023-09-07T06:48:23;101109.77;;;21.37;53.75
76519;BME280;67029;51.054;13.798;2023-09-07T06:50:53;101112.30;;;21.50;53.55
76519;BME280;67029;51.054;13.798;2023-09-07T06:53:23;101111.48;;;21.60;53.44
76519;BME280;67029;51.054;13.798;2023-09-07T06:56:01;101118.33;;;21.72;53.35
76519;BME280;67029;51.054;13.798;2023-09-07T06:58:24;101113.33;;;21.81;53.23
76519;BME280;67029;51.054;13.798;2023-09-07T07:00:58;101112.95;;;21.94;53.16
76519;BME280;67029;51.054;13.798;2023-09-07T07:03:29;101112.33;;;22.16;52.94
76519;BME280;67029;51.054;13.798;2023-09-07T07:05:56;101114.59;;;22.42;52.59
76519;BME280;67029;51.054;13.798;2023-09-07T07:08:26;101117.02;;;22.67;52.38
76519;BME280;67029;51.054;13.798;2023-09-07T07:10:57;101116.08;;;23.02;51.91
76519;BME280;67029;51.054;13.798;2023-09-07T07:13:27;101109.68;;;23.39;51.28
76519;BME280;67029;51.054;13.798;2023-09-07T07:15:57;101110.44;;;23.76;50.79
76519;BME280;67029;51.054;13.798;2023-09-07T07:18:27;101109.58;;;24.14;50.39
76519;BME280;67029;51.054;13.798;2023-09-07T07:20:58;101114.51;;;24.58;49.87
76519;BME280;67029;51.054;13.798;2023-09-07T07:23:29;101112.94;;;24.96;49.22
76519;BME280;67029;51.054;13.798;2023-09-07T07:25:59;101115.53;;;25.27;48.63
76519;BME280;67029;51.054;13.798;2023-09-07T07:28:30;101112.70;;;25.54;47.66
76519;BME280;67029;51.054;13.798;2023-09-07T07:31:08;101113.62;;;25.63;47.27
76519;BME280;67029;51.054;13.798;2023-09-07T07:33:30;101115.35;;;25.76;46.57
76519;BME280;67029;51.054;13.798;2023-09-07T07:36:01;101118.66;;;25.94;46.28
76519;BME280;67029;51.054;13.798;2023-09-07T07:38:32;101119.36;;;26.30;46.45
76519;BME280;67029;51.054;13.798;2023-09-07T07:41:02;101115.84;;;26.74;45.65
76519;BME280;67029;51.054;13.798;2023-09-07T07:43:33;101118.61;;;27.03;45.12
76519;BME280;67029;51.054;13.798;2023-09-07T07:46:03;101117.59;;;27.31;44.87
76519;BME280;67029;51.054;13.798;2023-09-07T07:48:34;101117.80;;;27.59;44.45
76519;BME280;67029;51.054;13.798;2023-09-07T07:51:04;101113.95;;;27.80;43.53
76519;BME280;67029;51.054;13.798;2023-09-07T07:53:35;101116.59;;;27.93;43.44
76519;BME280;67029;51.054;13.798;2023-09-07T07:56:05;101115.44;;;28.15;42.97
76519;BME280;67029;51.054;13.798;2023-09-07T07:58:36;101112.28;;;28.40;42.85
76519;BME280;67029;51.054;13.798;2023-09-07T08:01:14;101116.55;;;28.68;42.32
76519;BME280;67029;51.054;13.798;2023-09-07T08:03:37;101118.38;;;28.72;41.38
76519;BME280;67029;51.054;13.798;2023-09-07T08:06:07;101116.23;;;28.66;40.65
76519;BME280;67029;51.054;13.798;2023-09-07T08:08:39;101115.59;;;28.65;41.01
76519;BME280;67029;51.054;13.798;2023-09-07T08:11:08;101111.54;;;28.91;40.97
76519;BME280;67029;51.054;13.798;2023-09-07T08:13:39;101111.27;;;29.23;40.69
76519;BME280;67029;51.054;13.798;2023-09-07T08:16:09;101108.52;;;29.42;39.98
76519;BME280;67029;51.054;13.798;2023-09-07T08:18:40;101115.88;;;29.71;39.90
76519;BME280;67029;51.054;13.798;2023-09-07T08:21:11;101104.11;;;29.99;39.32
76519;BME280;67029;51.054;13.798;2023-09-07T08:23:41;101104.47;;;30.20;38.54
76519;BME280;67029;51.054;13.798;2023-09-07T08:26:14;101103.55;;;30.35;38.62
76519;BME280;67029;51.054;13.798;2023-09-07T08:28:42;101100.99;;;30.62;38.20
76519;BME280;67029;51.054;13.798;2023-09-07T08:31:15;101097.43;;;30.93;38.14
76519;BME280;67029;51.054;13.798;2023-09-07T08:33:43;101093.91;;;31.15;37.51
76519;BME280;67029;51.054;13.798;2023-09-07T08:36:18;101092.14;;;31.39;35.81
76519;BME280;67029;51.054;13.798;2023-09-07T08:38:52;101093.52;;;31.82;34.50
76519;BME280;67029;51.054;13.798;2023-09-07T08:41:22;101088.12;;;32.29;33.90
76519;BME280;67029;51.054;13.798;2023-09-07T08:43:45;101087.94;;;32.68;33.56
76519;BME280;67029;51.054;13.798;2023-09-07T08:46:19;101089.00;;;33.01;32.86
76519;BME280;67029;51.054;13.798;2023-09-07T08:48:56;101087.88;;;33.27;31.82
76519;BME280;67029;51.054;13.798;2023-09-07T08:51:20;101091.23;;;33.52;31.07
76519;BME280;67029;51.054;13.798;2023-09-07T08:53:53;101093.61;;;33.74;31.10
76519;BME280;67029;51.054;13.798;2023-09-07T08:56:20;101094.45;;;34.00;30.06
76519;BME280;67029;51.054;13.798;2023-09-07T08:58:48;101099.31;;;34.17;29.80
76519;BME280;67029;51.054;13.798;2023-09-07T09:01:18;101094.36;;;34.28;29.65
76519;BME280;67029;51.054;13.798;2023-09-07T09:03:54;101096.17;;;34.41;29.86
76519;BME280;67029;51.054;13.798;2023-09-07T09:06:23;101094.84;;;34.66;29.81
76519;BME280;67029;51.054;13.798;2023-09-07T09:08:53;101094.30;;;34.89;28.75
76519;BME280;67029;51.054;13.798;2023-09-07T09:11:25;101094.69;;;35.00;28.60
76519;BME280;67029;51.054;13.798;2023-09-07T09:18:59;101093.87;;;35.49;27.57
76519;BME280;67029;51.054;13.798;2023-09-07T09:21:42;101093.48;;;35.65;27.75
76519;BME280;67029;51.054;13.798;2023-09-07T09:23:57;101087.42;;;35.92;27.90
76519;BME280;67029;51.054;13.798;2023-09-07T09:26:32;101087.64;;;36.21;27.24
76519;BME280;67029;51.054;13.798;2023-09-07T09:28:59;101087.68;;;36.42;26.37
76519;BME280;67029;51.054;13.798;2023-09-07T09:31:30;101087.59;;;36.57;26.37
76519;BME280;67029;51.054;13.798;2023-09-07T09:36:37;101086.12;;;36.81;25.84
76519;BME280;67029;51.054;13.798;2023-09-07T09:41:28;101082.38;;;37.25;24.73
76519;BME280;67029;51.054;13.798;2023-09-07T09:43:58;101081.36;;;37.34;24.64
76519;BME280;67029;51.054;13.798;2023-09-07T09:49:00;101078.61;;;37.75;24.68
76519;BME280;67029;51.054;13.798;2023-09-07T09:51:30;101081.83;;;37.91;24.12
76519;BME280;67029;51.054;13.798;2023-09-07T09:54:03;101074.81;;;37.86;24.24
76519;BME280;67029;51.054;13.798;2023-09-07T09:59:01;101073.95;;;38.49;24.22
76519;BME280;67029;51.054;13.798;2023-09-07T10:01:46;101070.77;;;38.78;23.77
76519;BME280;67029;51.054;13.798;2023-09-07T10:04:03;101075.49;;;38.97;23.00
76519;BME280;67029;51.054;13.798;2023-09-07T10:09:07;101068.91;;;39.36;22.35
76519;BME280;67029;51.054;13.798;2023-09-07T10:11:35;101068.29;;;39.46;22.36
76519;BME280;67029;51.054;13.798;2023-09-07T10:19:14;101061.25;;;39.65;20.84
76519;BME280;67029;51.054;13.798;2023-09-07T10:21:40;101057.72;;;39.41;21.47
76519;BME280;67029;51.054;13.798;2023-09-07T10:24:08;101051.67;;;39.63;21.92
76519;BME280;67029;51.054;13.798;2023-09-07T10:26:38;101060.78;;;39.84;21.56
76519;BME280;67029;51.054;13.798;2023-09-07T10:29:09;101060.66;;;39.92;20.32
76519;BME280;67029;51.054;13.798;2023-09-07T10:31:40;101054.12;;;39.53;20.39
76519;BME280;67029;51.054;13.798;2023-09-07T10:34:10;101052.55;;;39.68;20.53
76519;BME280;67029;51.054;13.798;2023-09-07T10:36:40;101044.20;;;39.89;20.26
76519;BME280;67029;51.054;13.798;2023-09-07T10:39:11;101044.91;;;40.16;20.10
76519;BME280;67029;51.054;13.798;2023-09-07T10:41:45;101044.56;;;40.36;19.79
76519;BME280;67029;51.054;13.798;2023-09-07T10:44:11;101038.50;;;40.45;19.63
76519;BME280;67029;51.054;13.798;2023-09-07T10:46:42;101038.74;;;40.59;19.50
76519;BME280;67029;51.054;13.798;2023-09-07T10:49:12;101032.16;;;40.73;19.73
76519;BME280;67029;51.054;13.798;2023-09-07T10:51:45;101034.25;;;40.45;19.36
76519;BME280;67029;51.054;13.798;2023-09-07T10:54:17;101036.26;;;40.48;19.17
76519;BME280;67029;51.054;13.798;2023-09-07T10:56:45;101035.00;;;40.71;18.73
76519;BME280;67029;51.054;13.798;2023-09-07T10:59:14;101037.72;;;40.95;18.94
76519;BME280;67029;51.054;13.798;2023-09-07T11:01:45;101030.08;;;41.08;18.46
76519;BME280;67029;51.054;13.798;2023-09-07T11:04:16;101030.12;;;41.22;18.14
76519;BME280;67029;51.054;13.798;2023-09-07T11:06:46;101029.81;;;41.04;18.09
76519;BME280;67029;51.054;13.798;2023-09-07T11:09:19;101030.76;;;40.77;17.87
76519;BME280;67029;51.054;13.798;2023-09-07T11:11:48;101027.11;;;40.78;18.00
76519;BME280;67029;51.054;13.798;2023-09-07T11:14:21;101023.40;;;40.92;18.42
76519;BME280;67029;51.054;13.798;2023-09-07T11:16:49;101033.68;;;40.93;18.26
76519;BME280;67029;51.054;13.798;2023-09-07T11:19:21;101034.12;;;40.49;17.99
76519;BME280;67029;51.054;13.798;2023-09-07T11:21:53;101028.98;;;40.45;18.26
76519;BME280;67029;51.054;13.798;2023-09-07T11:24:20;101029.69;;;40.74;17.55
76519;BME280;67029;51.054;13.798;2023-09-07T11:26:51;101031.75;;;41.00;17.20
76519;BME280;67029;51.054;13.798;2023-09-07T11:29:22;101028.56;;;40.98;17.67
76519;BME280;67029;51.054;13.798;2023-09-07T11:31:52;101016.50;;;41.05;17.75
76519;BME280;67029;51.054;13.798;2023-09-07T11:34:22;101017.77;;;41.30;17.89
76519;BME280;67029;51.054;13.798;2023-09-07T11:36:53;101015.38;;;41.38;17.80
76519;BME280;67029;51.054;13.798;2023-09-07T11:39:23;101016.55;;;41.44;17.71
76519;BME280;67029;51.054;13.798;2023-09-07T11:41:54;101014.90;;;40.69;17.92
76519;BME280;67029;51.054;13.798;2023-09-07T11:44:24;101016.58;;;40.45;18.11
76519;BME280;67029;51.054;13.798;2023-09-07T11:46:55;101017.57;;;40.16;18.75
76519;BME280;67029;51.054;13.798;2023-09-07T11:49:25;101012.89;;;40.17;19.07
76519;BME280;67029;51.054;13.798;2023-09-07T11:51:56;101011.71;;;40.38;18.61
76519;BME280;67029;51.054;13.798;2023-09-07T11:54:26;101014.98;;;40.43;18.96
76519;BME280;67029;51.054;13.798;2023-09-07T11:56:57;101008.37;;;40.63;19.17
76519;BME280;67029;51.054;13.798;2023-09-07T11:59:27;101006.38;;;40.82;19.27
76519;BME280;67029;51.054;13.798;2023-09-07T12:01:58;101007.60;;;41.34;19.17
76519;BME280;67029;51.054;13.798;2023-09-07T12:04:28;101006.12;;;41.90;18.89
76519;BME280;67029;51.054;13.798;2023-09-07T12:06:58;101006.45;;;42.36;18.63
76519;BME280;67029;51.054;13.798;2023-09-07T12:09:28;101003.77;;;42.58;17.89
76519;BME280;67029;51.054;13.798;2023-09-07T12:11:58;101001.21;;;42.63;17.99
76519;BME280;67029;51.054;13.798;2023-09-07T12:14:28;101001.31;;;42.86;17.64
76519;BME280;67029;51.054;13.798;2023-09-07T12:16:58;100998.77;;;43.21;17.62
76519;BME280;67029;51.054;13.798;2023-09-07T12:19:28;100996.41;;;43.28;17.05
76519;BME280;67029;51.054;13.798;2023-09-07T12:21:58;100992.05;;;42.63;17.04
76519;BME280;67029;51.054;13.798;2023-09-07T12:24:28;100989.31;;;42.49;17.21
76519;BME280;67029;51.054;13.798;2023-09-07T12:26:59;100988.72;;;42.50;16.84
76519;BME280;67029;51.054;13.798;2023-09-07T12:29:28;100987.88;;;42.63;16.68
76519;BME280;67029;51.054;13.798;2023-09-07T12:31:59;100989.17;;;42.76;16.71
76519;BME280;67029;51.054;13.798;2023-09-07T12:34:28;100978.55;;;42.78;17.00
76519;BME280;67029;51.054;13.798;2023-09-07T12:36:59;100977.07;;;42.84;16.38
76519;BME280;67029;51.054;13.798;2023-09-07T12:39:29;100978.51;;;42.47;16.80
76519;BME280;67029;51.054;13.798;2023-09-07T12:41:59;100977.03;;;42.16;17.23
76519;BME280;67029;51.054;13.798;2023-09-07T12:44:29;100965.72;;;41.74;17.88
76519;BME280;67029;51.054;13.798;2023-09-07T12:46:59;100967.83;;;42.05;18.01
76519;BME280;67029;51.054;13.798;2023-09-07T12:49:29;100965.55;;;42.11;17.44
76519;BME280;67029;51.054;13.798;2023-09-07T12:51:59;100970.91;;;41.77;17.25
76519;BME280;67029;51.054;13.798;2023-09-07T12:54:29;100962.86;;;41.39;17.86
76519;BME280;67029;51.054;13.798;2023-09-07T12:56:59;100959.89;;;41.57;18.00
76519;BME280;67029;51.054;13.798;2023-09-07T12:59:29;100956.30;;;41.95;17.12
76519;BME280;67029;51.054;13.798;2023-09-07T13:01:59;100957.67;;;41.79;17.40
76519;BME280;67029;51.054;13.798;2023-09-07T13:04:29;100957.11;;;41.99;17.17
76519;BME280;67029;51.054;13.798;2023-09-07T13:06:59;100955.86;;;42.03;17.35
76519;BME280;67029;51.054;13.798;2023-09-07T13:09:29;100955.81;;;42.20;16.89
76519;BME280;67029;51.054;13.798;2023-09-07T13:11:59;100953.84;;;42.29;16.98
76519;BME280;67029;51.054;13.798;2023-09-07T13:14:29;100945.10;;;42.43;16.84
76519;BME280;67029;51.054;13.798;2023-09-07T13:16:59;100953.66;;;42.74;16.84